createdAt,value
2017-10-04T00:00:08.490Z,53.2
2017-10-04T00:01:10.283Z,53.9
2017-10-04T00:02:12.470Z,53.4
2017-10-04T00:03:14.261Z,53.2
2017-10-04T00:04:16.052Z,53.5
2017-10-04T00:05:17.846Z,53.3
2017-10-04T00:06:19.323Z,53.1
2017-10-04T00:07:21.432Z,53.7
2017-10-04T00:08:23.224Z,53.3
2017-10-04T00:09:24.324Z,53.6
2017-10-04T00:10:26.115Z,53.4
2017-10-04T00:11:27.214Z,53.4
2017-10-04T00:12:28.316Z,53.5
2017-10-04T00:13:30.085Z,53.5
2017-10-04T00:14:31.541Z,53.2
2017-10-04T00:15:33.331Z,53.1
2017-10-04T00:16:35.117Z,53.4
2017-10-04T00:17:36.582Z,53.7
2017-10-04T00:18:38.712Z,53.5
2017-10-04T00:19:40.167Z,53.5
2017-10-04T00:20:41.964Z,53.1
2017-10-04T00:21:43.754Z,53.2
2017-10-04T00:22:45.546Z,53.1
2017-10-04T00:23:46.982Z,53.5
2017-10-04T00:24:48.777Z,53.1
2017-10-04T00:25:50.903Z,53.5
2017-10-04T00:26:52.370Z,53.9
2017-10-04T00:27:54.143Z,53.3
2017-10-04T00:28:55.932Z,53.1
2017-10-04T00:29:57.435Z,53.1
2017-10-04T00:30:59.227Z,53.3
2017-10-04T00:32:01.385Z,53.6
2017-10-04T00:33:03.174Z,53.2
2017-10-04T00:34:05.302Z,53.6
2017-10-04T00:35:07.070Z,53.2
2017-10-04T00:36:08.507Z,53.8
2017-10-04T00:37:09.966Z,53.2
2017-10-04T00:38:11.757Z,53.1
2017-10-04T00:39:13.238Z,53.4
2017-10-04T00:40:15.030Z,53.9
2017-10-04T00:41:16.823Z,53.1
2017-10-04T00:42:18.952Z,53.9
2017-10-04T00:43:20.745Z,53.1
2017-10-04T00:44:22.872Z,53.1
2017-10-04T00:45:24.665Z,53.1
2017-10-04T00:46:26.454Z,53.3
2017-10-04T00:47:28.244Z,53.9
2017-10-04T00:48:30.018Z,53.1
2017-10-04T00:49:31.808Z,53.6
2017-10-04T00:50:33.935Z,53.1
2017-10-04T00:51:35.734Z,53.2
2017-10-04T00:52:37.186Z,53.2
2017-10-04T00:53:38.975Z,53.2
2017-10-04T00:54:40.768Z,53.9
2017-10-04T00:55:42.539Z,53.9
2017-10-04T00:56:44.311Z,53.8
2017-10-04T00:57:46.084Z,53.6
2017-10-04T00:58:47.540Z,53.8
2017-10-04T00:59:49.692Z,53.6
2017-10-04T01:00:51.483Z,53.2
2017-10-04T01:01:53.275Z,53.8
2017-10-04T01:02:54.713Z,53.4
2017-10-04T01:03:56.167Z,53.3
2017-10-04T01:04:58.294Z,53.2
2017-10-04T01:05:59.404Z,53.2
2017-10-04T01:07:01.198Z,53.4
2017-10-04T01:08:02.981Z,53.1
2017-10-04T01:09:04.433Z,53.1
2017-10-04T01:10:06.599Z,53.7
2017-10-04T01:11:08.389Z,53.6
2017-10-04T01:12:10.180Z,53.3
2017-10-04T01:13:10.949Z,53.1
2017-10-04T01:14:12.382Z,53.1
2017-10-04T01:15:13.817Z,53.4
2017-10-04T01:16:15.280Z,53.6
2017-10-04T01:17:17.054Z,53.4
2017-10-04T01:18:18.872Z,53.6
2017-10-04T01:19:20.640Z,53.5
2017-10-04T01:20:22.432Z,53.2
2017-10-04T01:21:23.557Z,53.5
2017-10-04T01:22:25.324Z,53.5
2017-10-04T01:23:27.120Z,53.5
2017-10-04T01:24:29.245Z,53.1
2017-10-04T01:25:31.036Z,53.2
2017-10-04T01:26:32.803Z,53.4
2017-10-04T01:27:34.598Z,53.6
2017-10-04T01:28:36.393Z,53.1
2017-10-04T01:29:38.184Z,53.5
2017-10-04T01:30:39.645Z,53.6
2017-10-04T01:31:41.080Z,53.5
2017-10-04T01:32:42.868Z,53.1
2017-10-04T01:33:44.660Z,53.1
2017-10-04T01:34:46.095Z,53.5
2017-10-04T01:35:47.553Z,53.1
2017-10-04T01:36:49.375Z,53.1
2017-10-04T01:37:51.167Z,53.3
2017-10-04T01:38:52.970Z,53.5
2017-10-04T01:39:54.060Z,53.5
2017-10-04T01:40:55.852Z,53.4
2017-10-04T01:41:57.287Z,53.5
2017-10-04T01:42:59.061Z,53.6
2017-10-04T01:44:00.854Z,53.5
2017-10-04T01:45:02.647Z,53.6
2017-10-04T01:46:04.085Z,53.5
2017-10-04T01:47:05.875Z,53.8
2017-10-04T01:48:08.001Z,53.1
2017-10-04T01:49:10.130Z,53.8
2017-10-04T01:50:11.580Z,53.1
2017-10-04T01:51:13.704Z,53.2
2017-10-04T01:52:15.474Z,53.1
2017-10-04T01:53:16.931Z,53.1
2017-10-04T01:54:19.058Z,53.6
2017-10-04T01:55:21.184Z,53.1
2017-10-04T01:56:22.978Z,53.5
2017-10-04T01:57:24.763Z,53.6
2017-10-04T01:58:26.897Z,53.6
2017-10-04T01:59:28.688Z,53.1
2017-10-04T02:00:30.815Z,53.5
2017-10-04T02:01:32.942Z,53.3
2017-10-04T02:02:35.067Z,53.5
2017-10-04T02:03:36.502Z,53.1
2017-10-04T02:04:38.660Z,53.6
2017-10-04T02:05:40.093Z,53.2
2017-10-04T02:06:42.226Z,53.5
2017-10-04T02:07:43.657Z,53.5
2017-10-04T02:08:45.096Z,53.8
2017-10-04T02:09:47.227Z,53.4
2017-10-04T02:10:49.064Z,53.3
2017-10-04T02:11:49.832Z,53.9
2017-10-04T02:12:50.935Z,53.6
2017-10-04T02:13:52.369Z,53.4
2017-10-04T02:14:53.803Z,53.4
2017-10-04T02:15:55.931Z,53.9
2017-10-04T02:16:57.365Z,53.3
2017-10-04T02:17:59.158Z,53.4
2017-10-04T02:19:00.930Z,53.2
2017-10-04T02:20:03.058Z,53.2
2017-10-04T02:21:04.168Z,53.3
2017-10-04T02:22:05.950Z,53.2
2017-10-04T02:23:07.722Z,53.4
2017-10-04T02:24:09.158Z,53.4
2017-10-04T02:25:10.949Z,53.4
2017-10-04T02:26:12.741Z,53.4
2017-10-04T02:27:14.866Z,53.3
2017-10-04T02:28:16.658Z,53.4
2017-10-04T02:29:18.450Z,53.4
2017-10-04T02:30:20.244Z,53.5
2017-10-04T02:31:21.701Z,53.9
2017-10-04T02:32:23.493Z,53.4
2017-10-04T02:33:25.646Z,53.5
2017-10-04T02:34:27.091Z,53.4
2017-10-04T02:35:29.220Z,53.4
2017-10-04T02:36:31.029Z,53.3
2017-10-04T02:37:32.464Z,53.4
2017-10-04T02:38:33.900Z,53.7
2017-10-04T02:39:35.694Z,53.4
2017-10-04T02:40:37.484Z,53.4
2017-10-04T02:41:39.612Z,53.3
2017-10-04T02:42:41.736Z,53.4
2017-10-04T02:43:42.838Z,53.4
2017-10-04T02:44:44.632Z,53.4
2017-10-04T02:45:46.426Z,53.4
2017-10-04T02:46:48.216Z,53.4
2017-10-04T02:47:49.651Z,53.2
2017-10-04T02:48:51.775Z,53.8
2017-10-04T02:49:53.901Z,53.5
2017-10-04T02:50:55.011Z,53.4
2017-10-04T02:51:55.778Z,53.6
2017-10-04T02:52:57.547Z,53.5
2017-10-04T02:53:59.340Z,53.4
2017-10-04T02:55:01.129Z,53.4
2017-10-04T02:56:02.908Z,53.2
2017-10-04T02:57:04.701Z,53.7
2017-10-04T02:58:06.155Z,53.9
2017-10-04T02:59:08.281Z,53.9
2017-10-04T03:00:10.075Z,53.7
2017-10-04T03:01:11.841Z,53.3
2017-10-04T03:02:13.971Z,53.4
2017-10-04T03:03:15.428Z,53.4
2017-10-04T03:04:17.552Z,53.9
2017-10-04T03:05:19.676Z,53.9
2017-10-04T03:06:21.516Z,53.4
2017-10-04T03:07:23.642Z,53.4
2017-10-04T03:08:25.432Z,53.8
2017-10-04T03:09:27.223Z,53.2
2017-10-04T03:10:29.351Z,53.5
2017-10-04T03:11:31.477Z,53.4
2017-10-04T03:12:33.606Z,53.4
2017-10-04T03:13:35.731Z,53.5
2017-10-04T03:14:37.522Z,53.4
2017-10-04T03:15:39.314Z,53.6
2017-10-04T03:16:40.750Z,53.4
2017-10-04T03:17:42.542Z,53.3
2017-10-04T03:18:44.673Z,53.8
2017-10-04T03:19:46.799Z,53.2
2017-10-04T03:20:48.234Z,53.3
2017-10-04T03:21:49.694Z,53.9
2017-10-04T03:22:51.130Z,53.3
2017-10-04T03:23:52.921Z,53.8
2017-10-04T03:24:54.695Z,53.3
2017-10-04T03:25:55.795Z,53.4
2017-10-04T03:26:57.920Z,53.8
2017-10-04T03:27:59.692Z,53.3
2017-10-04T03:29:01.129Z,53.2
2017-10-04T03:30:02.230Z,53.5
2017-10-04T03:31:04.000Z,53.4
2017-10-04T03:32:05.458Z,53.3
2017-10-04T03:33:07.226Z,53.9
2017-10-04T03:34:09.015Z,53.4
2017-10-04T03:35:10.804Z,53.2
2017-10-04T03:36:12.931Z,53.3
2017-10-04T03:37:14.365Z,53.8
2017-10-04T03:38:16.154Z,53.2
2017-10-04T03:39:17.611Z,53.2
2017-10-04T03:40:19.401Z,53.2
2017-10-04T03:41:20.843Z,52.9
2017-10-04T03:42:22.614Z,53.3
2017-10-04T03:43:24.048Z,52.9
2017-10-04T03:44:25.489Z,53.3
2017-10-04T03:45:26.928Z,53.8
2017-10-04T03:46:28.385Z,53.4
2017-10-04T03:47:30.509Z,53.7
2017-10-04T03:48:32.351Z,53.3
2017-10-04T03:49:34.480Z,53.3
2017-10-04T03:50:35.915Z,53.3
2017-10-04T03:51:37.347Z,53
2017-10-04T03:52:39.115Z,53.6
2017-10-04T03:53:41.241Z,53.2
2017-10-04T03:54:42.677Z,53.3
2017-10-04T03:55:44.479Z,52.9
2017-10-04T03:56:46.270Z,53.3
2017-10-04T03:57:48.397Z,53.2
2017-10-04T03:58:50.520Z,53.1
2017-10-04T03:59:52.294Z,53.5
2017-10-04T04:00:54.087Z,53.6
2017-10-04T04:01:55.523Z,53.8
2017-10-04T04:02:57.314Z,53.4
2017-10-04T04:03:59.440Z,53.1
2017-10-04T04:05:00.895Z,53.1
2017-10-04T04:06:02.351Z,52.9
2017-10-04T04:07:03.807Z,53
2017-10-04T04:08:05.263Z,53.8
2017-10-04T04:09:07.388Z,53.2
2017-10-04T04:10:09.178Z,53.1
2017-10-04T04:11:10.966Z,52.9
2017-10-04T04:12:12.761Z,53
2017-10-04T04:13:14.199Z,53.7
2017-10-04T04:14:15.658Z,52.9
2017-10-04T04:15:17.784Z,52.8
2017-10-04T04:16:19.553Z,52.8
2017-10-04T04:17:20.990Z,53.3
2017-10-04T04:18:22.780Z,53.3
2017-10-04T04:19:24.237Z,53.8
2017-10-04T04:20:26.007Z,53.7
2017-10-04T04:21:28.165Z,53.6
2017-10-04T04:22:29.623Z,53.8
2017-10-04T04:23:31.413Z,53.1
2017-10-04T04:24:33.539Z,53
2017-10-04T04:25:34.641Z,53.1
2017-10-04T04:26:36.766Z,53.4
2017-10-04T04:27:38.546Z,53
2017-10-04T04:28:40.008Z,52.8
2017-10-04T04:29:41.818Z,52.9
2017-10-04T04:30:43.255Z,52.9
2017-10-04T04:31:44.711Z,53
2017-10-04T04:32:46.503Z,53.8
2017-10-04T04:33:47.958Z,53.1
2017-10-04T04:34:49.392Z,53.4
2017-10-04T04:35:50.847Z,53
2017-10-04T04:36:52.637Z,53.1
2017-10-04T04:37:54.410Z,53
2017-10-04T04:38:55.867Z,52.9
2017-10-04T04:39:57.661Z,53
2017-10-04T04:40:59.476Z,53.1
2017-10-04T04:42:01.262Z,52.9
2017-10-04T04:43:02.695Z,52.9
2017-10-04T04:44:04.489Z,53.4
2017-10-04T04:45:05.923Z,53
2017-10-04T04:46:07.714Z,53.3
2017-10-04T04:47:09.839Z,53.3
2017-10-04T04:48:11.282Z,53
2017-10-04T04:49:13.069Z,52.8
2017-10-04T04:50:15.197Z,53
2017-10-04T04:51:16.636Z,53
2017-10-04T04:52:18.760Z,53
2017-10-04T04:53:20.884Z,53
2017-10-04T04:54:22.035Z,53.1
2017-10-04T04:55:23.823Z,53
2017-10-04T04:56:25.952Z,53.1
2017-10-04T04:57:28.079Z,53
2017-10-04T04:58:29.869Z,53.1
2017-10-04T04:59:31.661Z,53.2
2017-10-04T05:00:33.461Z,53
2017-10-04T05:01:34.920Z,53
2017-10-04T05:02:36.710Z,53
2017-10-04T05:03:38.503Z,53
2017-10-04T05:04:39.601Z,53.5
2017-10-04T05:05:41.726Z,53.5
2017-10-04T05:06:43.851Z,53.1
2017-10-04T05:07:45.295Z,53.1
2017-10-04T05:08:47.419Z,53.6
2017-10-04T05:09:49.193Z,53.1
2017-10-04T05:10:50.970Z,53.1
2017-10-04T05:11:52.425Z,53.1
2017-10-04T05:12:54.215Z,53.1
2017-10-04T05:13:56.009Z,53.1
2017-10-04T05:14:57.799Z,53.1
2017-10-04T05:15:59.255Z,53.1
2017-10-04T05:17:00.690Z,53.2
2017-10-04T05:18:02.463Z,53.1
2017-10-04T05:19:04.589Z,53
2017-10-04T05:20:06.718Z,53.1
2017-10-04T05:21:08.174Z,52.9
2017-10-04T05:22:09.966Z,53.1
2017-10-04T05:23:12.092Z,53
2017-10-04T05:24:13.527Z,53.5
2017-10-04T05:25:15.654Z,53
2017-10-04T05:26:17.090Z,53.1
2017-10-04T05:27:18.575Z,53.1
2017-10-04T05:28:19.679Z,53.1
2017-10-04T05:29:21.117Z,53
2017-10-04T05:30:22.913Z,53.5
2017-10-04T05:31:24.015Z,53.1
2017-10-04T05:32:25.474Z,53.2
2017-10-04T05:33:27.598Z,53.1
2017-10-04T05:34:29.405Z,53.1
2017-10-04T05:35:31.178Z,53.1
2017-10-04T05:36:32.970Z,53.1
2017-10-04T05:37:34.741Z,53.1
2017-10-04T05:38:36.176Z,53.1
2017-10-04T05:39:37.971Z,53.1
2017-10-04T05:40:40.098Z,53.1
2017-10-04T05:41:41.889Z,53.1
2017-10-04T05:42:42.992Z,53.1
2017-10-04T05:43:44.430Z,53.1
2017-10-04T05:44:46.222Z,53.1
2017-10-04T05:45:47.681Z,53.1
2017-10-04T05:46:48.779Z,53.1
2017-10-04T05:47:50.575Z,53.1
2017-10-04T05:48:52.704Z,53.1
2017-10-04T05:49:54.834Z,53.1
2017-10-04T05:50:56.606Z,53.1
2017-10-04T05:51:58.735Z,53.1
2017-10-04T05:53:00.529Z,53.1
2017-10-04T05:54:02.304Z,53.1
2017-10-04T05:55:04.095Z,53.1
2017-10-04T05:56:05.535Z,53.1
2017-10-04T05:57:07.325Z,53.1
2017-10-04T05:58:09.119Z,53.1
2017-10-04T05:59:10.918Z,53
2017-10-04T06:00:12.711Z,53.1
2017-10-04T06:01:13.837Z,53.1
2017-10-04T06:02:15.623Z,53.4
2017-10-04T06:03:17.068Z,53.2
2017-10-04T06:04:18.837Z,53.1
2017-10-04T06:05:20.270Z,53.2
2017-10-04T06:06:22.396Z,53.1
2017-10-04T06:07:24.174Z,53.1
2017-10-04T06:08:26.305Z,53.4
2017-10-04T06:09:28.430Z,53.1
2017-10-04T06:10:30.206Z,53.1
2017-10-04T06:11:32.008Z,53.2
2017-10-04T06:12:33.448Z,53.2
2017-10-04T06:13:35.243Z,53.5
2017-10-04T06:14:37.038Z,53.5
2017-10-04T06:15:38.474Z,53.2
2017-10-04T06:16:40.268Z,53.1
2017-10-04T06:17:41.726Z,53.2
2017-10-04T06:18:43.187Z,53.1
2017-10-04T06:19:44.286Z,53.1
2017-10-04T06:20:46.414Z,53.1
2017-10-04T06:21:48.542Z,53.2
2017-10-04T06:22:50.004Z,53.2
2017-10-04T06:23:51.558Z,53.1
2017-10-04T06:24:53.336Z,53.2
2017-10-04T06:25:55.135Z,52.9
2017-10-04T06:26:56.591Z,53.6
2017-10-04T06:27:58.053Z,53.1
2017-10-04T06:28:59.518Z,53.1
2017-10-04T06:30:00.958Z,53.5
2017-10-04T06:31:03.085Z,53.2
2017-10-04T06:32:05.089Z,53.1
2017-10-04T06:33:06.529Z,53.1
2017-10-04T06:34:08.652Z,53.1
2017-10-04T06:35:10.446Z,53.1
2017-10-04T06:36:11.886Z,53.2
2017-10-04T06:37:14.012Z,53.2
2017-10-04T06:38:15.113Z,53.5
2017-10-04T06:39:16.338Z,53.1
2017-10-04T06:40:18.110Z,53.1
2017-10-04T06:41:19.568Z,53.1
2017-10-04T06:42:21.361Z,53.1
2017-10-04T06:43:22.818Z,53.6
2017-10-04T06:44:24.327Z,53.1
2017-10-04T06:45:26.454Z,53.1
2017-10-04T06:46:28.581Z,53.1
2017-10-04T06:47:30.373Z,53.2
2017-10-04T06:48:32.170Z,53.2
2017-10-04T06:49:33.635Z,53.1
2017-10-04T06:50:35.762Z,53.1
2017-10-04T06:51:37.558Z,53.1
2017-10-04T06:52:39.329Z,53.5
2017-10-04T06:53:40.767Z,53.1
2017-10-04T06:54:42.565Z,53.2
2017-10-04T06:55:44.694Z,52.8
2017-10-04T06:56:46.823Z,53.1
2017-10-04T06:57:47.592Z,53.2
2017-10-04T06:58:49.046Z,53.1
2017-10-04T06:59:50.989Z,53
2017-10-04T07:00:52.764Z,53
2017-10-04T07:01:54.896Z,53.1
2017-10-04T07:02:56.353Z,52.8
2017-10-04T07:03:57.125Z,53
2017-10-04T07:04:58.561Z,53.5
2017-10-04T07:06:00.687Z,52.9
2017-10-04T07:07:02.481Z,53
2017-10-04T07:08:04.608Z,52.9
2017-10-04T07:09:06.380Z,52.9
2017-10-04T07:10:07.839Z,52.9
2017-10-04T07:11:09.277Z,52.9
2017-10-04T07:12:11.403Z,53
2017-10-04T07:13:13.201Z,53.4
2017-10-04T07:14:14.655Z,53.1
2017-10-04T07:15:16.424Z,52.9
2017-10-04T07:16:17.881Z,53
2017-10-04T07:17:19.676Z,52.9
2017-10-04T07:18:21.113Z,53.1
2017-10-04T07:19:22.547Z,52.9
2017-10-04T07:20:24.372Z,52.8
2017-10-04T07:21:26.165Z,52.7
2017-10-04T07:22:28.298Z,53
2017-10-04T07:23:29.399Z,52.7
2017-10-04T07:24:30.854Z,52.8
2017-10-04T07:25:32.985Z,52.9
2017-10-04T07:26:35.115Z,52.7
2017-10-04T07:27:36.573Z,53
2017-10-04T07:28:38.012Z,52.7
2017-10-04T07:29:39.784Z,52.8
2017-10-04T07:30:41.219Z,52.7
2017-10-04T07:31:43.350Z,52.8
2017-10-04T07:32:45.475Z,52.7
2017-10-04T07:33:47.601Z,52.8
2017-10-04T07:34:49.038Z,52.8
2017-10-04T07:35:51.275Z,52.9
2017-10-04T07:36:53.071Z,53
2017-10-04T07:37:55.196Z,52.9
2017-10-04T07:38:56.634Z,52.8
2017-10-04T07:39:58.093Z,52.9
2017-10-04T07:40:59.963Z,52.9
2017-10-04T07:42:01.754Z,52.7
2017-10-04T07:43:03.212Z,53
2017-10-04T07:44:05.006Z,52.7
2017-10-04T07:45:06.462Z,52.8
2017-10-04T07:46:08.310Z,52.9
2017-10-04T07:47:10.104Z,53.1
2017-10-04T07:48:11.872Z,52.8
2017-10-04T07:49:13.997Z,53.1
2017-10-04T07:50:15.095Z,53
2017-10-04T07:51:15.917Z,52.9
2017-10-04T07:52:17.373Z,53.1
2017-10-04T07:53:18.815Z,52.9
2017-10-04T07:54:20.275Z,52.7
2017-10-04T07:55:22.056Z,52.8
2017-10-04T07:56:23.177Z,52.9
2017-10-04T07:57:24.976Z,53.2
2017-10-04T07:58:26.747Z,52.8
2017-10-04T07:59:28.522Z,52.5
2017-10-04T08:00:29.986Z,52.6
2017-10-04T08:01:31.777Z,52.9
2017-10-04T08:02:33.210Z,52.7
2017-10-04T08:03:35.343Z,52.6
2017-10-04T08:04:37.136Z,52.8
2017-10-04T08:05:38.573Z,52.8
2017-10-04T08:06:40.344Z,52.6
2017-10-04T08:07:42.142Z,52.5
2017-10-04T08:08:43.936Z,52.6
2017-10-04T08:09:45.400Z,52.5
2017-10-04T08:10:46.507Z,52.8
2017-10-04T08:11:48.071Z,52.4
2017-10-04T08:12:49.865Z,52.7
2017-10-04T08:13:50.631Z,52.6
2017-10-04T08:14:52.068Z,52.9
2017-10-04T08:15:53.863Z,52.5
2017-10-04T08:16:55.661Z,52.5
2017-10-04T08:17:57.452Z,52.4
2017-10-04T08:18:59.586Z,52.5
2017-10-04T08:20:01.719Z,52.5
2017-10-04T08:21:03.152Z,52.9
2017-10-04T08:22:04.615Z,52.6
2017-10-04T08:23:06.419Z,52.9
2017-10-04T08:24:08.208Z,53.2
2017-10-04T08:25:09.643Z,52.5
2017-10-04T08:26:11.436Z,52.5
2017-10-04T08:27:13.564Z,53.2
2017-10-04T08:28:15.008Z,52.6
2017-10-04T08:29:16.462Z,52.5
2017-10-04T08:30:18.255Z,52.5
2017-10-04T08:31:20.044Z,52.4
2017-10-04T08:32:21.508Z,52.5
2017-10-04T08:33:22.965Z,52.4
2017-10-04T08:34:24.762Z,52.7
2017-10-04T08:35:26.219Z,52.9
2017-10-04T08:36:28.352Z,52.4
2017-10-04T08:37:29.788Z,52.5
2017-10-04T08:38:31.584Z,52.4
2017-10-04T08:39:33.065Z,52.7
2017-10-04T08:40:34.830Z,52.3
2017-10-04T08:41:36.269Z,52.4
2017-10-04T08:42:38.401Z,52.2
2017-10-04T08:43:39.839Z,52.6
2017-10-04T08:44:40.943Z,52
2017-10-04T08:45:42.738Z,52.5
2017-10-04T08:46:44.537Z,51.6
2017-10-04T08:47:46.294Z,51.9
2017-10-04T08:48:48.067Z,51.9
2017-10-04T08:49:49.860Z,52.2
2017-10-04T08:50:51.657Z,52
2017-10-04T08:51:53.447Z,51.9
2017-10-04T08:52:54.221Z,52.1
2017-10-04T08:53:55.991Z,52
2017-10-04T08:54:57.450Z,52.2
2017-10-04T08:55:59.577Z,51.7
2017-10-04T08:57:01.706Z,51.9
2017-10-04T08:58:02.809Z,51.6
2017-10-04T08:59:04.606Z,51.7
2017-10-04T09:00:06.734Z,51.7
2017-10-04T09:01:08.510Z,51.9
2017-10-04T09:02:09.951Z,52
2017-10-04T09:03:11.720Z,51.9
2017-10-04T09:04:13.852Z,52.3
2017-10-04T09:05:14.955Z,51.9
2017-10-04T09:06:16.744Z,51.8
2017-10-04T09:07:18.207Z,51.7
2017-10-04T09:08:20.338Z,51.8
2017-10-04T09:09:21.801Z,51.8
2017-10-04T09:10:23.934Z,51.9
2017-10-04T09:11:25.734Z,51.8
2017-10-04T09:12:27.172Z,51.8
2017-10-04T09:13:29.016Z,52.2
2017-10-04T09:14:30.811Z,51.9
2017-10-04T09:15:32.606Z,52
2017-10-04T09:16:34.401Z,52
2017-10-04T09:17:36.199Z,51.7
2017-10-04T09:19:09.777Z,51.8
2017-10-04T09:20:11.573Z,51.8
2017-10-04T09:21:13.030Z,51.5
2017-10-04T09:22:14.825Z,51.7
2017-10-04T09:23:16.600Z,51.5
2017-10-04T09:24:18.058Z,51.7
2017-10-04T09:25:19.848Z,51.5
2017-10-04T09:26:21.625Z,51.6
2017-10-04T09:27:23.063Z,52.1
2017-10-04T09:28:24.856Z,52
2017-10-04T09:29:26.316Z,52.2
2017-10-04T09:30:28.452Z,51.8
2017-10-04T09:31:30.579Z,51.7
2017-10-04T09:32:31.705Z,51.8
2017-10-04T09:33:33.504Z,51.6
2017-10-04T09:34:35.277Z,51.7
2017-10-04T09:35:37.071Z,51.7
2017-10-04T09:36:38.838Z,51.7
2017-10-04T09:37:40.614Z,52
2017-10-04T09:38:42.054Z,51.6
2017-10-04T09:39:44.181Z,51.7
2017-10-04T09:40:45.977Z,51.9
2017-10-04T09:41:48.104Z,51.9
2017-10-04T09:42:50.230Z,51.9
2017-10-04T09:43:52.358Z,51.7
2017-10-04T09:44:54.155Z,51.5
2017-10-04T09:45:55.610Z,51.7
2017-10-04T09:46:57.066Z,51.8
2017-10-04T09:47:58.166Z,52.1
2017-10-04T09:48:59.627Z,51.7
2017-10-04T09:50:01.756Z,51.7
2017-10-04T09:51:03.882Z,51.5
2017-10-04T09:52:05.322Z,51.8
2017-10-04T09:53:07.123Z,51.8
2017-10-04T09:54:08.921Z,51.7
2017-10-04T09:55:11.050Z,51.6
2017-10-04T09:56:12.842Z,51.5
2017-10-04T09:57:13.626Z,51.5
2017-10-04T09:58:15.407Z,51.6
2017-10-04T09:59:17.207Z,51.7
2017-10-04T10:00:19.338Z,51.8
2017-10-04T10:01:20.772Z,51.9
2017-10-04T10:02:22.566Z,51.8
2017-10-04T10:03:24.365Z,51.8
2017-10-04T10:04:25.470Z,51.8
2017-10-04T10:05:27.600Z,51.7
2017-10-04T10:06:29.403Z,51.7
2017-10-04T10:07:31.527Z,51.9
2017-10-04T10:08:33.325Z,51.9
2017-10-04T10:09:35.457Z,51.7
2017-10-04T10:10:37.251Z,52.2
2017-10-04T10:11:39.045Z,51.9
2017-10-04T10:12:41.176Z,51.8
2017-10-04T10:13:46.622Z,51.6
2017-10-04T10:14:48.086Z,51.8
2017-10-04T10:15:50.214Z,51.8
2017-10-04T10:16:54.662Z,51.8
2017-10-04T10:17:55.948Z,52
2017-10-04T10:18:57.748Z,51.5
2017-10-04T10:19:59.532Z,51.5
2017-10-04T10:21:01.660Z,51.5
2017-10-04T10:22:03.464Z,51.6
2017-10-04T10:23:04.553Z,51.6
2017-10-04T10:24:06.328Z,51.6
2017-10-04T10:25:08.121Z,51.4
2017-10-04T10:26:09.892Z,51.7
2017-10-04T10:27:12.022Z,51.4
2017-10-04T10:28:13.820Z,51.5
2017-10-04T10:29:15.946Z,51.5
2017-10-04T10:30:17.718Z,51.5
2017-10-04T10:31:19.509Z,51.3
2017-10-04T10:32:21.282Z,51.8
2017-10-04T10:33:22.721Z,51.3
2017-10-04T10:34:24.159Z,51.4
2017-10-04T10:35:25.956Z,51.8
2017-10-04T10:36:27.728Z,51.3
2017-10-04T10:37:28.497Z,51.8
2017-10-04T10:38:29.932Z,51.4
2017-10-04T10:39:31.725Z,51.5
2017-10-04T10:40:33.496Z,51.3
2017-10-04T10:41:35.628Z,51.4
2017-10-04T10:42:37.754Z,51.3
2017-10-04T10:43:39.549Z,51.7
2017-10-04T10:44:41.346Z,51.4
2017-10-04T10:45:42.450Z,51.7
2017-10-04T10:46:44.226Z,51.3
2017-10-04T10:47:45.694Z,51.3
2017-10-04T10:48:47.487Z,51.4
2017-10-04T10:49:49.618Z,51.3
2017-10-04T10:50:51.076Z,51.7
2017-10-04T10:51:52.872Z,51.3
2017-10-04T10:52:53.973Z,51.4
2017-10-04T10:53:55.770Z,51.1
2017-10-04T10:54:57.210Z,51.3
2017-10-04T10:55:58.646Z,51
2017-10-04T10:57:00.438Z,51.1
2017-10-04T10:58:02.229Z,51.1
2017-10-04T10:59:03.666Z,51.1
2017-10-04T11:00:05.464Z,51
2017-10-04T11:01:07.590Z,51.2
2017-10-04T11:02:09.385Z,51.3
2017-10-04T11:03:11.183Z,51.1
2017-10-04T11:04:12.977Z,51.2
2017-10-04T11:05:14.776Z,51.1
2017-10-04T11:06:16.584Z,51
2017-10-04T11:07:18.713Z,51.1
2017-10-04T11:08:20.153Z,51
2017-10-04T11:09:21.947Z,51.1
2017-10-04T11:10:24.079Z,51
2017-10-04T11:11:26.207Z,51
2017-10-04T11:12:27.983Z,51.1
2017-10-04T11:13:30.111Z,51
2017-10-04T11:14:31.574Z,51.1
2017-10-04T11:15:33.366Z,51.2
2017-10-04T11:16:35.491Z,51.1
2017-10-04T11:17:37.289Z,51
2017-10-04T11:18:39.418Z,51.8
2017-10-04T11:19:41.215Z,51.4
2017-10-04T11:20:42.986Z,51.1
2017-10-04T11:21:44.781Z,51.1
2017-10-04T11:22:46.910Z,51.1
2017-10-04T11:23:48.708Z,51.2
2017-10-04T11:24:50.503Z,51.2
2017-10-04T11:25:52.298Z,51.2
2017-10-04T11:26:53.739Z,51.3
2017-10-04T11:27:55.868Z,51.2
2017-10-04T11:28:56.972Z,51
2017-10-04T11:29:59.099Z,51.1
2017-10-04T11:31:01.241Z,51.2
2017-10-04T11:32:03.003Z,51.1
2017-10-04T11:33:04.113Z,51.1
2017-10-04T11:34:05.554Z,51.7
2017-10-04T11:35:07.015Z,51.4
2017-10-04T11:36:08.115Z,51
2017-10-04T11:37:09.963Z,51.4
2017-10-04T11:38:11.401Z,51.1
2017-10-04T11:39:12.843Z,51.5
2017-10-04T11:40:14.974Z,51.3
2017-10-04T11:41:16.435Z,51.2
2017-10-04T11:42:18.230Z,51.4
2017-10-04T11:43:20.024Z,51.4
2017-10-04T11:44:21.123Z,51.3
2017-10-04T11:45:22.564Z,51.5
2017-10-04T11:46:24.693Z,51.3
2017-10-04T11:47:26.825Z,51.3
2017-10-04T11:48:28.957Z,51.3
2017-10-04T11:49:29.731Z,51.2
2017-10-04T11:50:31.187Z,51
2017-10-04T11:51:33.334Z,51.2
2017-10-04T11:52:35.128Z,51.5
2017-10-04T11:53:36.240Z,51.2
2017-10-04T11:54:38.369Z,51.1
2017-10-04T11:55:40.501Z,51.2
2017-10-04T11:56:41.964Z,51.2
2017-10-04T11:57:43.067Z,50.9
2017-10-04T11:58:44.864Z,51.2
2017-10-04T11:59:46.657Z,51.5
2017-10-04T12:00:48.784Z,50.7
2017-10-04T12:01:50.557Z,51.1
2017-10-04T12:02:51.995Z,50.9
2017-10-04T12:03:53.790Z,51.2
2017-10-04T12:04:55.920Z,51.2
2017-10-04T12:05:57.357Z,51.1
2017-10-04T12:06:58.817Z,51.2
2017-10-04T12:08:00.283Z,51.2
2017-10-04T12:09:02.413Z,51.4
2017-10-04T12:10:03.515Z,51.1
2017-10-04T12:11:05.308Z,51
2017-10-04T12:12:07.105Z,51
2017-10-04T12:13:08.900Z,50.9
2017-10-04T12:14:10.668Z,50.7
2017-10-04T12:15:12.793Z,50.8
2017-10-04T12:16:14.590Z,50.7
2017-10-04T12:17:16.388Z,50.7
2017-10-04T12:18:18.524Z,51.4
2017-10-04T12:19:19.984Z,51.2
2017-10-04T12:20:21.774Z,50.7
2017-10-04T12:21:23.232Z,51
2017-10-04T12:22:25.004Z,50.8
2017-10-04T12:23:26.442Z,51.4
2017-10-04T12:24:27.883Z,51.2
2017-10-04T12:25:29.659Z,50.7
2017-10-04T12:26:31.096Z,50.8
2017-10-04T12:27:32.893Z,50.8
2017-10-04T12:28:34.685Z,51.2
2017-10-04T12:29:36.477Z,50.9
2017-10-04T12:30:38.270Z,51.2
2017-10-04T12:31:39.733Z,50.8
2017-10-04T12:32:41.526Z,50.9
2017-10-04T12:33:43.653Z,51.1
2017-10-04T12:34:44.757Z,50.6
2017-10-04T12:35:46.204Z,50.8
2017-10-04T12:36:47.666Z,50.7
2017-10-04T12:37:49.437Z,50.8
2017-10-04T12:38:50.951Z,51.1
2017-10-04T12:39:53.079Z,50.9
2017-10-04T12:40:54.541Z,51.1
2017-10-04T12:41:55.308Z,50.7
2017-10-04T12:42:57.103Z,51
2017-10-04T12:43:59.232Z,50.8
2017-10-04T12:45:01.026Z,50.7
2017-10-04T12:46:02.489Z,51.1
2017-10-04T12:47:04.622Z,50.7
2017-10-04T12:48:06.075Z,50.9
2017-10-04T12:49:07.872Z,50.5
2017-10-04T12:50:09.647Z,50.9
2017-10-04T12:51:11.086Z,50.7
2017-10-04T12:52:12.530Z,50.6
2017-10-04T12:53:14.657Z,50.7
2017-10-04T12:54:16.785Z,50.7
2017-10-04T12:55:18.226Z,50.6
2017-10-04T12:56:19.686Z,50.5
2017-10-04T12:57:21.816Z,50.9
2017-10-04T12:58:23.610Z,50.7
2017-10-04T12:59:25.738Z,50.9
2017-10-04T13:00:27.175Z,50.7
2017-10-04T13:01:28.639Z,50.8
2017-10-04T13:02:30.768Z,50.7
2017-10-04T13:03:32.206Z,50.5
2017-10-04T13:04:33.996Z,50.9
2017-10-04T13:05:35.766Z,50.8
2017-10-04T13:06:37.896Z,50.7
2017-10-04T13:07:40.026Z,50.6
2017-10-04T13:08:41.468Z,50.6
2017-10-04T13:09:43.363Z,50.5
2017-10-04T13:10:45.156Z,50.7
2017-10-04T13:11:46.258Z,51
2017-10-04T13:12:48.387Z,50.8
2017-10-04T13:13:50.182Z,50.7
2017-10-04T13:14:51.952Z,50.7
2017-10-04T13:15:53.744Z,51
2017-10-04T13:16:55.187Z,50.7
2017-10-04T13:17:56.292Z,50.7
2017-10-04T13:18:58.084Z,51
2017-10-04T13:19:59.871Z,50.8
2017-10-04T13:21:01.305Z,50.6
2017-10-04T13:22:02.768Z,50.9
2017-10-04T13:23:03.871Z,50.8
2017-10-04T13:24:04.986Z,50.8
2017-10-04T13:25:06.787Z,50.9
2017-10-04T13:26:08.581Z,51
2017-10-04T13:27:10.039Z,51.1
2017-10-04T13:28:12.171Z,51
2017-10-04T13:29:12.942Z,51.4
2017-10-04T13:30:15.075Z,51.1
2017-10-04T13:31:16.842Z,50.8
2017-10-04T13:32:18.277Z,50.8
2017-10-04T13:33:20.407Z,50.7
2017-10-04T13:34:22.538Z,51.4
2017-10-04T13:35:24.313Z,50.8
2017-10-04T13:36:26.104Z,50.7
2017-10-04T13:37:28.247Z,50.7
2017-10-04T13:38:29.703Z,50.7
2017-10-04T13:39:31.485Z,50.8
2017-10-04T13:40:33.291Z,50.8
2017-10-04T13:41:34.396Z,50.7
2017-10-04T13:42:36.187Z,50.7
2017-10-04T13:43:37.980Z,50.7
2017-10-04T13:44:39.773Z,50.8
2017-10-04T13:45:41.210Z,50.7